sensor_id;sensor_type;location;lat;lon;timestamp;temperature;humidity
7240;DHT22;3661;53.288;10.458;2023-02-19T00:02:04;5.30;99.90
7240;DHT22;3661;53.288;10.458;2023-02-19T00:04:36;5.30;99.90
7240;DHT22;3661;53.288;10.458;2023-02-19T00:07:10;5.30;99.90
7240;DHT22;3661;53.288;10.458;2023-02-19T00:09:42;5.30;99.90
7240;DHT22;3661;53.288;10.458;2023-02-19T00:12:14;5.30;99.90
7240;DHT22;3661;53.288;10.458;2023-02-19T00:14:46;5.30;99.90
7240;DHT22;3661;53.288;10.458;2023-02-19T00:17:18;5.30;99.90
7240;DHT22;3661;53.288;10.458;2023-02-19T00:19:51;5.30;99.90
7240;DHT22;3661;53.288;10.458;2023-02-19T00:22:24;5.30;99.90
7240;DHT22;3661;53.288;10.458;2023-02-19T00:24:56;5.30;99.90
7240;DHT22;3661;53.288;10.458;2023-02-19T00:27:28;5.20;99.90
7240;DHT22;3661;53.288;10.458;2023-02-19T00:30:00;5.20;99.90
7240;DHT22;3661;53.288;10.458;2023-02-19T00:32:32;5.20;99.90
7240;DHT22;3661;53.288;10.458;2023-02-19T00:35:05;5.20;99.90
7240;DHT22;3661;53.288;10.458;2023-02-19T00:37:38;5.20;99.90
7240;DHT22;3661;53.288;10.458;2023-02-19T00:40:10;5.20;99.90
7240;DHT22;3661;53.288;10.458;2023-02-19T00:42:42;5.20;99.90
7240;DHT22;3661;53.288;10.458;2023-02-19T00:45:14;5.20;99.90
7240;DHT22;3661;53.288;10.458;2023-02-19T00:47:46;5.20;99.90
7240;DHT22;3661;53.288;10.458;2023-02-19T00:50:18;5.20;99.90
7240;DHT22;3661;53.288;10.458;2023-02-19T00:52:52;5.20;99.90
7240;DHT22;3661;53.288;10.458;2023-02-19T00:55:24;5.20;99.90
7240;DHT22;3661;53.288;10.458;2023-02-19T00:57:56;5.20;99.90
7240;DHT22;3661;53.288;10.458;2023-02-19T01:00:28;5.20;99.90
7240;DHT22;3661;53.288;10.458;2023-02-19T01:03:00;5.20;99.90
7240;DHT22;3661;53.288;10.458;2023-02-19T01:05:32;5.10;99.90
7240;DHT22;3661;53.288;10.458;2023-02-19T01:08:06;5.10;99.90
7240;DHT22;3661;53.288;10.458;2023-02-19T01:10:38;5.10;99.90
7240;DHT22;3661;53.288;10.458;2023-02-19T01:13:10;5.10;99.90
7240;DHT22;3661;53.288;10.458;2023-02-19T01:15:43;5.10;99.90
7240;DHT22;3661;53.288;10.458;2023-02-19T01:18:16;5.10;99.90
7240;DHT22;3661;53.288;10.458;2023-02-19T01:20:48;5.10;99.90
7240;DHT22;3661;53.288;10.458;2023-02-19T01:23:21;5.10;99.90
7240;DHT22;3661;53.288;10.458;2023-02-19T01:25:53;5.10;99.90
7240;DHT22;3661;53.288;10.458;2023-02-19T01:28:25;5.10;99.90
7240;DHT22;3661;53.288;10.458;2023-02-19T01:31:00;5.00;99.90
7240;DHT22;3661;53.288;10.458;2023-02-19T01:33:34;5.10;99.90
7240;DHT22;3661;53.288;10.458;2023-02-19T01:36:07;5.10;99.90
7240;DHT22;3661;53.288;10.458;2023-02-19T01:38:42;5.00;99.90
7240;DHT22;3661;53.288;10.458;2023-02-19T01:41:18;5.00;99.90
7240;DHT22;3661;53.288;10.458;2023-02-19T01:43:59;5.00;99.90
7240;DHT22;3661;53.288;10.458;2023-02-19T01:46:32;5.00;99.90
7240;DHT22;3661;53.288;10.458;2023-02-19T01:49:07;5.00;99.90
7240;DHT22;3661;53.288;10.458;2023-02-19T01:51:44;5.00;99.90
7240;DHT22;3661;53.288;10.458;2023-02-19T01:54:21;5.00;99.90
7240;DHT22;3661;53.288;10.458;2023-02-19T01:56:56;4.90;99.90
7240;DHT22;3661;53.288;10.458;2023-02-19T01:59:30;5.00;99.90
7240;DHT22;3661;53.288;10.458;2023-02-19T02:02:03;4.90;99.90
7240;DHT22;3661;53.288;10.458;2023-02-19T02:04:35;4.90;99.90
7240;DHT22;3661;53.288;10.458;2023-02-19T02:07:07;4.90;99.90
7240;DHT22;3661;53.288;10.458;2023-02-19T02:09:55;4.90;99.90
7240;DHT22;3661;53.288;10.458;2023-02-19T02:12:45;4.90;99.90
7240;DHT22;3661;53.288;10.458;2023-02-19T02:15:18;4.90;99.90
7240;DHT22;3661;53.288;10.458;2023-02-19T02:17:54;4.90;99.90
7240;DHT22;3661;53.288;10.458;2023-02-19T02:20:34;4.90;99.90
7240;DHT22;3661;53.288;10.458;2023-02-19T02:23:18;4.90;99.90
7240;DHT22;3661;53.288;10.458;2023-02-19T02:26:09;4.90;99.90
7240;DHT22;3661;53.288;10.458;2023-02-19T02:29:07;4.90;99.90
7240;DHT22;3661;53.288;10.458;2023-02-19T02:31:49;4.80;99.90
7240;DHT22;3661;53.288;10.458;2023-02-19T02:34:27;4.80;99.90
7240;DHT22;3661;53.288;10.458;2023-02-19T02:37:02;4.80;99.90
7240;DHT22;3661;53.288;10.458;2023-02-19T02:39:38;4.80;99.90
7240;DHT22;3661;53.288;10.458;2023-02-19T02:42:12;4.80;99.90
7240;DHT22;3661;53.288;10.458;2023-02-19T02:45:23;4.80;99.90
7240;DHT22;3661;53.288;10.458;2023-02-19T02:48:19;4.80;99.90
7240;DHT22;3661;53.288;10.458;2023-02-19T02:50:54;4.80;99.90
7240;DHT22;3661;53.288;10.458;2023-02-19T02:53:31;4.80;99.90
7240;DHT22;3661;53.288;10.458;2023-02-19T02:56:21;4.80;99.90
7240;DHT22;3661;53.288;10.458;2023-02-19T02:58:57;4.80;99.90
7240;DHT22;3661;53.288;10.458;2023-02-19T03:01:32;4.80;99.90
7240;DHT22;3661;53.288;10.458;2023-02-19T03:04:28;4.80;99.90
7240;DHT22;3661;53.288;10.458;2023-02-19T03:07:05;4.80;99.90
7240;DHT22;3661;53.288;10.458;2023-02-19T03:09:41;4.70;99.90
7240;DHT22;3661;53.288;10.458;2023-02-19T03:12:14;4.70;99.90
7240;DHT22;3661;53.288;10.458;2023-02-19T03:15:08;4.70;99.90
7240;DHT22;3661;53.288;10.458;2023-02-19T03:18:00;4.70;99.90
7240;DHT22;3661;53.288;10.458;2023-02-19T03:20:56;4.70;99.90
7240;DHT22;3661;53.288;10.458;2023-02-19T03:23:31;4.70;99.90
7240;DHT22;3661;53.288;10.458;2023-02-19T03:26:21;4.70;99.90
7240;DHT22;3661;53.288;10.458;2023-02-19T03:28:55;4.70;99.90
7240;DHT22;3661;53.288;10.458;2023-02-19T03:31:46;4.70;99.90
7240;DHT22;3661;53.288;10.458;2023-02-19T03:34:22;4.70;99.90
7240;DHT22;3661;53.288;10.458;2023-02-19T03:37:01;4.60;99.90
7240;DHT22;3661;53.288;10.458;2023-02-19T03:39:37;4.60;99.90
7240;DHT22;3661;53.288;10.458;2023-02-19T03:42:24;4.60;99.90
7240;DHT22;3661;53.288;10.458;2023-02-19T03:45:18;4.60;99.90
7240;DHT22;3661;53.288;10.458;2023-02-19T03:48:06;4.60;99.90
7240;DHT22;3661;53.288;10.458;2023-02-19T03:50:44;4.60;99.90
7240;DHT22;3661;53.288;10.458;2023-02-19T03:53:25;4.60;99.90
7240;DHT22;3661;53.288;10.458;2023-02-19T03:56:05;4.60;99.90
7240;DHT22;3661;53.288;10.458;2023-02-19T03:58:43;4.60;99.90
7240;DHT22;3661;53.288;10.458;2023-02-19T04:01:23;4.60;99.90
7240;DHT22;3661;53.288;10.458;2023-02-19T04:04:01;4.50;99.90
7240;DHT22;3661;53.288;10.458;2023-02-19T04:06:36;4.50;99.90
7240;DHT22;3661;53.288;10.458;2023-02-19T04:09:12;4.50;99.90
7240;DHT22;3661;53.288;10.458;2023-02-19T04:11:46;4.50;99.90
7240;DHT22;3661;53.288;10.458;2023-02-19T04:14:21;4.50;99.90
7240;DHT22;3661;53.288;10.458;2023-02-19T04:16:59;4.40;99.90
7240;DHT22;3661;53.288;10.458;2023-02-19T04:19:36;4.40;99.90
7240;DHT22;3661;53.288;10.458;2023-02-19T04:22:09;4.50;99.90
7240;DHT22;3661;53.288;10.458;2023-02-19T04:24:47;4.40;99.90
7240;DHT22;3661;53.288;10.458;2023-02-19T04:27:19;4.40;99.90
7240;DHT22;3661;53.288;10.458;2023-02-19T04:29:51;4.40;99.90
7240;DHT22;3661;53.288;10.458;2023-02-19T04:32:24;4.40;99.90
7240;DHT22;3661;53.288;10.458;2023-02-19T04:34:56;4.40;99.90
7240;DHT22;3661;53.288;10.458;2023-02-19T04:37:28;4.30;99.90
7240;DHT22;3661;53.288;10.458;2023-02-19T04:40:01;4.30;99.90
7240;DHT22;3661;53.288;10.458;2023-02-19T04:42:33;4.40;99.90
7240;DHT22;3661;53.288;10.458;2023-02-19T04:45:06;4.30;99.90
7240;DHT22;3661;53.288;10.458;2023-02-19T04:47:38;4.30;99.90
7240;DHT22;3661;53.288;10.458;2023-02-19T04:50:10;4.30;99.90
7240;DHT22;3661;53.288;10.458;2023-02-19T04:52:43;4.30;99.90
7240;DHT22;3661;53.288;10.458;2023-02-19T04:55:16;4.30;99.90
7240;DHT22;3661;53.288;10.458;2023-02-19T04:57:48;4.30;99.90
7240;DHT22;3661;53.288;10.458;2023-02-19T05:00:21;4.30;99.90
7240;DHT22;3661;53.288;10.458;2023-02-19T05:02:53;4.20;99.90
7240;DHT22;3661;53.288;10.458;2023-02-19T05:05:25;4.20;99.90
7240;DHT22;3661;53.288;10.458;2023-02-19T05:07:57;4.20;99.90
7240;DHT22;3661;53.288;10.458;2023-02-19T05:10:30;4.20;99.90
7240;DHT22;3661;53.288;10.458;2023-02-19T05:13:03;4.20;99.90
7240;DHT22;3661;53.288;10.458;2023-02-19T05:15:36;4.20;99.90
7240;DHT22;3661;53.288;10.458;2023-02-19T05:18:10;4.20;99.90
7240;DHT22;3661;53.288;10.458;2023-02-19T05:20:42;4.10;99.90
7240;DHT22;3661;53.288;10.458;2023-02-19T05:23:14;4.20;99.90
7240;DHT22;3661;53.288;10.458;2023-02-19T05:25:48;4.10;99.90
7240;DHT22;3661;53.288;10.458;2023-02-19T05:28:20;4.10;99.90
7240;DHT22;3661;53.288;10.458;2023-02-19T05:31:04;4.10;99.90
7240;DHT22;3661;53.288;10.458;2023-02-19T05:33:36;4.10;99.90
7240;DHT22;3661;53.288;10.458;2023-02-19T05:36:10;4.10;99.90
7240;DHT22;3661;53.288;10.458;2023-02-19T05:38:43;4.00;99.90
7240;DHT22;3661;53.288;10.458;2023-02-19T05:41:18;4.00;99.90
7240;DHT22;3661;53.288;10.458;2023-02-19T05:43:51;4.10;99.90
7240;DHT22;3661;53.288;10.458;2023-02-19T05:46:25;4.00;99.90
7240;DHT22;3661;53.288;10.458;2023-02-19T05:48:58;4.00;99.90
7240;DHT22;3661;53.288;10.458;2023-02-19T05:51:30;4.00;99.90
7240;DHT22;3661;53.288;10.458;2023-02-19T05:54:03;4.00;99.90
7240;DHT22;3661;53.288;10.458;2023-02-19T05:56:38;3.90;99.90
7240;DHT22;3661;53.288;10.458;2023-02-19T05:59:15;3.90;99.90
7240;DHT22;3661;53.288;10.458;2023-02-19T06:01:47;3.90;99.90
7240;DHT22;3661;53.288;10.458;2023-02-19T06:04:20;3.90;99.90
7240;DHT22;3661;53.288;10.458;2023-02-19T06:06:53;3.80;99.90
7240;DHT22;3661;53.288;10.458;2023-02-19T06:09:25;3.80;99.90
7240;DHT22;3661;53.288;10.458;2023-02-19T06:11:58;3.80;99.90
7240;DHT22;3661;53.288;10.458;2023-02-19T06:14:30;3.70;99.90
7240;DHT22;3661;53.288;10.458;2023-02-19T06:17:05;3.70;99.90
7240;DHT22;3661;53.288;10.458;2023-02-19T06:19:37;3.70;99.90
7240;DHT22;3661;53.288;10.458;2023-02-19T06:22:10;3.70;99.90
7240;DHT22;3661;53.288;10.458;2023-02-19T06:24:42;3.60;99.90
7240;DHT22;3661;53.288;10.458;2023-02-19T06:27:17;3.60;99.90
7240;DHT22;3661;53.288;10.458;2023-02-19T06:29:49;3.50;99.90
7240;DHT22;3661;53.288;10.458;2023-02-19T06:32:21;3.50;99.90
7240;DHT22;3661;53.288;10.458;2023-02-19T06:34:53;3.50;99.90
7240;DHT22;3661;53.288;10.458;2023-02-19T06:37:25;3.50;99.90
7240;DHT22;3661;53.288;10.458;2023-02-19T06:39:59;3.40;99.90
7240;DHT22;3661;53.288;10.458;2023-02-19T06:42:32;3.40;99.90
7240;DHT22;3661;53.288;10.458;2023-02-19T06:45:05;3.40;99.90
7240;DHT22;3661;53.288;10.458;2023-02-19T06:47:37;3.40;99.90
7240;DHT22;3661;53.288;10.458;2023-02-19T06:50:09;3.30;99.90
7240;DHT22;3661;53.288;10.458;2023-02-19T06:52:41;3.30;99.90
7240;DHT22;3661;53.288;10.458;2023-02-19T06:55:13;3.30;99.90
7240;DHT22;3661;53.288;10.458;2023-02-19T06:57:46;3.20;99.90
7240;DHT22;3661;53.288;10.458;2023-02-19T07:00:19;3.20;99.90
7240;DHT22;3661;53.288;10.458;2023-02-19T07:02:51;3.20;99.90
7240;DHT22;3661;53.288;10.458;2023-02-19T07:05:27;3.20;99.90
7240;DHT22;3661;53.288;10.458;2023-02-19T07:07:59;3.10;99.90
7240;DHT22;3661;53.288;10.458;2023-02-19T07:10:31;3.10;99.90
7240;DHT22;3661;53.288;10.458;2023-02-19T07:13:05;3.10;99.90
7240;DHT22;3661;53.288;10.458;2023-02-19T07:15:40;3.10;99.90
7240;DHT22;3661;53.288;10.458;2023-02-19T07:18:19;3.00;99.90
7240;DHT22;3661;53.288;10.458;2023-02-19T07:20:51;3.10;99.90
7240;DHT22;3661;53.288;10.458;2023-02-19T07:23:23;3.00;99.90
7240;DHT22;3661;53.288;10.458;2023-02-19T07:25:56;3.00;99.90
7240;DHT22;3661;53.288;10.458;2023-02-19T07:28:29;3.00;99.90
7240;DHT22;3661;53.288;10.458;2023-02-19T07:31:02;3.00;99.90
7240;DHT22;3661;53.288;10.458;2023-02-19T07:33:35;3.00;99.90
7240;DHT22;3661;53.288;10.458;2023-02-19T07:36:08;3.00;99.90
7240;DHT22;3661;53.288;10.458;2023-02-19T07:38:40;3.00;99.90
7240;DHT22;3661;53.288;10.458;2023-02-19T07:41:12;3.00;99.90
7240;DHT22;3661;53.288;10.458;2023-02-19T07:43:45;3.00;99.90
7240;DHT22;3661;53.288;10.458;2023-02-19T07:46:18;3.00;99.90
7240;DHT22;3661;53.288;10.458;2023-02-19T07:48:50;3.00;99.90
7240;DHT22;3661;53.288;10.458;2023-02-19T07:51:22;3.00;99.90
7240;DHT22;3661;53.288;10.458;2023-02-19T07:53:54;3.00;99.90
7240;DHT22;3661;53.288;10.458;2023-02-19T07:56:26;3.10;99.90
7240;DHT22;3661;53.288;10.458;2023-02-19T07:59:00;3.10;99.90
7240;DHT22;3661;53.288;10.458;2023-02-19T08:01:32;3.10;99.90
7240;DHT22;3661;53.288;10.458;2023-02-19T08:04:22;3.10;99.90
7240;DHT22;3661;53.288;10.458;2023-02-19T08:06:54;3.20;99.90
7240;DHT22;3661;53.288;10.458;2023-02-19T08:09:26;3.20;99.90
7240;DHT22;3661;53.288;10.458;2023-02-19T08:11:58;3.20;99.90
7240;DHT22;3661;53.288;10.458;2023-02-19T08:15:04;3.20;99.90
7240;DHT22;3661;53.288;10.458;2023-02-19T08:17:36;3.30;99.90
7240;DHT22;3661;53.288;10.458;2023-02-19T08:20:09;3.30;99.90
7240;DHT22;3661;53.288;10.458;2023-02-19T08:22:41;3.40;99.90
7240;DHT22;3661;53.288;10.458;2023-02-19T08:25:13;3.40;99.90
7240;DHT22;3661;53.288;10.458;2023-02-19T08:27:45;3.50;99.90
7240;DHT22;3661;53.288;10.458;2023-02-19T08:30:18;3.50;99.90
7240;DHT22;3661;53.288;10.458;2023-02-19T08:32:51;3.60;99.90
7240;DHT22;3661;53.288;10.458;2023-02-19T08:35:28;3.70;99.90
7240;DHT22;3661;53.288;10.458;2023-02-19T08:38:00;3.70;99.90
7240;DHT22;3661;53.288;10.458;2023-02-19T08:40:32;3.80;99.90
7240;DHT22;3661;53.288;10.458;2023-02-19T08:43:07;3.90;99.90
7240;DHT22;3661;53.288;10.458;2023-02-19T08:45:42;4.00;99.90
7240;DHT22;3661;53.288;10.458;2023-02-19T08:48:15;4.00;99.90
7240;DHT22;3661;53.288;10.458;2023-02-19T08:50:53;4.10;99.90
7240;DHT22;3661;53.288;10.458;2023-02-19T08:53:25;4.20;99.90
7240;DHT22;3661;53.288;10.458;2023-02-19T08:55:57;4.30;99.90
7240;DHT22;3661;53.288;10.458;2023-02-19T08:58:29;4.40;99.90
7240;DHT22;3661;53.288;10.458;2023-02-19T09:01:07;4.50;99.90
7240;DHT22;3661;53.288;10.458;2023-02-19T09:03:40;4.60;99.90
7240;DHT22;3661;53.288;10.458;2023-02-19T09:06:14;4.70;99.90
7240;DHT22;3661;53.288;10.458;2023-02-19T09:08:46;4.80;99.90
7240;DHT22;3661;53.288;10.458;2023-02-19T09:11:18;4.90;99.90
7240;DHT22;3661;53.288;10.458;2023-02-19T09:13:50;5.10;99.90
7240;DHT22;3661;53.288;10.458;2023-02-19T09:16:24;5.20;99.90
7240;DHT22;3661;53.288;10.458;2023-02-19T09:18:56;5.40;99.90
7240;DHT22;3661;53.288;10.458;2023-02-19T09:21:28;5.50;99.90
7240;DHT22;3661;53.288;10.458;2023-02-19T09:24:00;5.70;99.90
7240;DHT22;3661;53.288;10.458;2023-02-19T09:26:32;5.80;99.90
7240;DHT22;3661;53.288;10.458;2023-02-19T09:29:04;6.00;99.90
7240;DHT22;3661;53.288;10.458;2023-02-19T09:31:37;6.10;99.90
7240;DHT22;3661;53.288;10.458;2023-02-19T09:34:09;6.30;99.90
7240;DHT22;3661;53.288;10.458;2023-02-19T09:36:42;6.50;99.90
7240;DHT22;3661;53.288;10.458;2023-02-19T09:39:14;6.60;99.90
7240;DHT22;3661;53.288;10.458;2023-02-19T09:41:48;6.80;99.90
7240;DHT22;3661;53.288;10.458;2023-02-19T09:44:27;7.00;99.90
7240;DHT22;3661;53.288;10.458;2023-02-19T09:47:05;7.10;99.90
7240;DHT22;3661;53.288;10.458;2023-02-19T09:49:40;7.30;99.90
7240;DHT22;3661;53.288;10.458;2023-02-19T09:52:17;7.50;99.90
7240;DHT22;3661;53.288;10.458;2023-02-19T09:54:49;7.60;99.90
7240;DHT22;3661;53.288;10.458;2023-02-19T09:57:29;7.80;99.90
7240;DHT22;3661;53.288;10.458;2023-02-19T10:00:05;8.00;99.90
7240;DHT22;3661;53.288;10.458;2023-02-19T10:02:39;8.20;99.90
7240;DHT22;3661;53.288;10.458;2023-02-19T10:05:12;8.30;99.90
7240;DHT22;3661;53.288;10.458;2023-02-19T10:07:47;8.50;99.90
7240;DHT22;3661;53.288;10.458;2023-02-19T10:10:25;8.60;99.90
7240;DHT22;3661;53.288;10.458;2023-02-19T10:13:09;8.80;99.90
7240;DHT22;3661;53.288;10.458;2023-02-19T10:15:46;8.90;99.90
7240;DHT22;3661;53.288;10.458;2023-02-19T10:18:22;9.10;99.90
7240;DHT22;3661;53.288;10.458;2023-02-19T10:20:56;9.20;99.90
7240;DHT22;3661;53.288;10.458;2023-02-19T10:23:28;9.40;99.90
7240;DHT22;3661;53.288;10.458;2023-02-19T10:26:01;9.50;99.90
7240;DHT22;3661;53.288;10.458;2023-02-19T10:28:34;9.60;99.90
7240;DHT22;3661;53.288;10.458;2023-02-19T10:31:14;9.80;99.90
7240;DHT22;3661;53.288;10.458;2023-02-19T10:33:50;9.90;99.90
7240;DHT22;3661;53.288;10.458;2023-02-19T10:36:25;10.10;99.90
7240;DHT22;3661;53.288;10.458;2023-02-19T10:39:00;10.20;99.90
7240;DHT22;3661;53.288;10.458;2023-02-19T10:41:33;10.20;99.90
7240;DHT22;3661;53.288;10.458;2023-02-19T10:44:14;10.30;99.90
7240;DHT22;3661;53.288;10.458;2023-02-19T10:46:51;10.40;99.90
7240;DHT22;3661;53.288;10.458;2023-02-19T10:49:28;10.50;99.90
7240;DHT22;3661;53.288;10.458;2023-02-19T10:52:12;10.50;99.90
7240;DHT22;3661;53.288;10.458;2023-02-19T10:54:50;10.60;99.90
7240;DHT22;3661;53.288;10.458;2023-02-19T10:57:28;10.60;99.90
7240;DHT22;3661;53.288;10.458;2023-02-19T11:00:19;10.70;99.90
7240;DHT22;3661;53.288;10.458;2023-02-19T11:03:15;10.80;99.90
7240;DHT22;3661;53.288;10.458;2023-02-19T11:05:59;10.80;99.90
7240;DHT22;3661;53.288;10.458;2023-02-19T11:08:39;10.80;99.90
7240;DHT22;3661;53.288;10.458;2023-02-19T11:11:24;10.90;99.90
7240;DHT22;3661;53.288;10.458;2023-02-19T11:13:59;10.90;99.90
7240;DHT22;3661;53.288;10.458;2023-02-19T11:16:40;11.00;99.90
7240;DHT22;3661;53.288;10.458;2023-02-19T11:19:27;11.00;99.90
7240;DHT22;3661;53.288;10.458;2023-02-19T11:22:18;11.00;99.90
7240;DHT22;3661;53.288;10.458;2023-02-19T11:24:51;11.10;99.90
7240;DHT22;3661;53.288;10.458;2023-02-19T11:27:24;11.00;99.90
7240;DHT22;3661;53.288;10.458;2023-02-19T11:30:32;11.00;99.90
7240;DHT22;3661;53.288;10.458;2023-02-19T11:33:28;11.00;99.90
7240;DHT22;3661;53.288;10.458;2023-02-19T11:36:23;11.00;99.90
7240;DHT22;3661;53.288;10.458;2023-02-19T11:38:59;11.00;99.90
7240;DHT22;3661;53.288;10.458;2023-02-19T11:41:50;11.10;99.90
7240;DHT22;3661;53.288;10.458;2023-02-19T11:44:34;11.10;99.90
7240;DHT22;3661;53.288;10.458;2023-02-19T11:47:42;11.10;99.90
7240;DHT22;3661;53.288;10.458;2023-02-19T11:50:21;11.10;99.90
7240;DHT22;3661;53.288;10.458;2023-02-19T11:53:05;11.20;99.90
7240;DHT22;3661;53.288;10.458;2023-02-19T11:55:53;11.20;99.90
7240;DHT22;3661;53.288;10.458;2023-02-19T11:58:54;11.30;99.90
7240;DHT22;3661;53.288;10.458;2023-02-19T12:02:03;11.30;99.90
7240;DHT22;3661;53.288;10.458;2023-02-19T12:11:15;11.70;99.90
7240;DHT22;3661;53.288;10.458;2023-02-19T12:14:21;11.80;99.90
7240;DHT22;3661;53.288;10.458;2023-02-19T12:16:59;11.90;99.90
7240;DHT22;3661;53.288;10.458;2023-02-19T12:19:55;12.00;99.90
7240;DHT22;3661;53.288;10.458;2023-02-19T12:22:32;12.10;99.90
7240;DHT22;3661;53.288;10.458;2023-02-19T12:25:24;12.20;99.90
7240;DHT22;3661;53.288;10.458;2023-02-19T12:34:21;12.40;99.90
7240;DHT22;3661;53.288;10.458;2023-02-19T12:37:05;12.50;99.90
7240;DHT22;3661;53.288;10.458;2023-02-19T12:39:45;12.50;99.90
7240;DHT22;3661;53.288;10.458;2023-02-19T12:42:28;12.60;99.90
7240;DHT22;3661;53.288;10.458;2023-02-19T12:45:13;12.60;99.90
7240;DHT22;3661;53.288;10.458;2023-02-19T12:48:00;12.70;99.90
7240;DHT22;3661;53.288;10.458;2023-02-19T12:50:36;12.80;99.90
7240;DHT22;3661;53.288;10.458;2023-02-19T12:53:21;12.80;99.90
7240;DHT22;3661;53.288;10.458;2023-02-19T12:55:55;12.90;99.90
7240;DHT22;3661;53.288;10.458;2023-02-19T12:58:34;12.90;99.90
7240;DHT22;3661;53.288;10.458;2023-02-19T13:01:14;12.90;99.90
7240;DHT22;3661;53.288;10.458;2023-02-19T13:03:56;12.90;99.90
7240;DHT22;3661;53.288;10.458;2023-02-19T13:06:36;12.90;99.90
7240;DHT22;3661;53.288;10.458;2023-02-19T13:09:14;12.90;99.90
7240;DHT22;3661;53.288;10.458;2023-02-19T13:11:51;12.90;99.90
7240;DHT22;3661;53.288;10.458;2023-02-19T13:14:29;13.00;99.90
7240;DHT22;3661;53.288;10.458;2023-02-19T13:17:10;13.00;99.90
7240;DHT22;3661;53.288;10.458;2023-02-19T13:19:50;13.00;99.90
7240;DHT22;3661;53.288;10.458;2023-02-19T13:22:31;13.00;99.90
7240;DHT22;3661;53.288;10.458;2023-02-19T13:25:29;13.00;99.90
7240;DHT22;3661;53.288;10.458;2023-02-19T13:28:19;13.00;99.90
7240;DHT22;3661;53.288;10.458;2023-02-19T13:31:15;13.00;99.90
7240;DHT22;3661;53.288;10.458;2023-02-19T13:34:01;13.00;99.90
7240;DHT22;3661;53.288;10.458;2023-02-19T13:36:36;13.00;99.90
7240;DHT22;3661;53.288;10.458;2023-02-19T13:39:13;12.90;99.90
7240;DHT22;3661;53.288;10.458;2023-02-19T13:41:49;12.90;99.90
7240;DHT22;3661;53.288;10.458;2023-02-19T13:44:24;12.90;99.90
7240;DHT22;3661;53.288;10.458;2023-02-19T13:46:57;12.90;99.90
7240;DHT22;3661;53.288;10.458;2023-02-19T13:49:40;12.90;99.90
7240;DHT22;3661;53.288;10.458;2023-02-19T13:52:37;12.90;99.90
7240;DHT22;3661;53.288;10.458;2023-02-19T14:04:46;12.30;99.90
7240;DHT22;3661;53.288;10.458;2023-02-19T14:10:56;11.80;99.90
7240;DHT22;3661;53.288;10.458;2023-02-19T14:14:24;11.50;99.90
7240;DHT22;3661;53.288;10.458;2023-02-19T14:19:54;11.10;99.90
7240;DHT22;3661;53.288;10.458;2023-02-19T14:25:54;10.80;99.90
7240;DHT22;3661;53.288;10.458;2023-02-19T14:28:30;10.70;99.90
7240;DHT22;3661;53.288;10.458;2023-02-19T14:31:28;10.60;99.90
7240;DHT22;3661;53.288;10.458;2023-02-19T14:34:03;10.50;99.90
7240;DHT22;3661;53.288;10.458;2023-02-19T14:40:00;10.40;99.90
7240;DHT22;3661;53.288;10.458;2023-02-19T14:42:32;10.30;99.90
7240;DHT22;3661;53.288;10.458;2023-02-19T14:45:06;10.20;99.90
7240;DHT22;3661;53.288;10.458;2023-02-19T14:47:38;10.20;99.90
7240;DHT22;3661;53.288;10.458;2023-02-19T14:50:15;10.10;99.90
7240;DHT22;3661;53.288;10.458;2023-02-19T14:52:50;10.00;99.90
7240;DHT22;3661;53.288;10.458;2023-02-19T14:55:26;10.00;99.90
7240;DHT22;3661;53.288;10.458;2023-02-19T14:58:03;9.90;99.90
7240;DHT22;3661;53.288;10.458;2023-02-19T15:00:38;9.90;99.90
7240;DHT22;3661;53.288;10.458;2023-02-19T15:03:25;9.80;99.90
7240;DHT22;3661;53.288;10.458;2023-02-19T15:06:00;9.80;99.90
7240;DHT22;3661;53.288;10.458;2023-02-19T15:08:37;9.80;99.90
7240;DHT22;3661;53.288;10.458;2023-02-19T15:11:14;9.70;99.90
7240;DHT22;3661;53.288;10.458;2023-02-19T15:13:49;9.70;99.90
7240;DHT22;3661;53.288;10.458;2023-02-19T15:16:24;9.60;99.90
7240;DHT22;3661;53.288;10.458;2023-02-19T15:18:58;9.60;99.90
7240;DHT22;3661;53.288;10.458;2023-02-19T15:21:31;9.50;99.90
7240;DHT22;3661;53.288;10.458;2023-02-19T15:24:06;9.50;99.90
7240;DHT22;3661;53.288;10.458;2023-02-19T15:26:40;9.50;99.90
7240;DHT22;3661;53.288;10.458;2023-02-19T15:29:16;9.50;99.90
7240;DHT22;3661;53.288;10.458;2023-02-19T15:31:50;9.50;99.90
7240;DHT22;3661;53.288;10.458;2023-02-19T15:34:24;9.50;99.90
7240;DHT22;3661;53.288;10.458;2023-02-19T15:36:58;9.40;99.90
7240;DHT22;3661;53.288;10.458;2023-02-19T15:39:34;9.40;99.90
7240;DHT22;3661;53.288;10.458;2023-02-19T15:42:14;9.40;99.90
7240;DHT22;3661;53.288;10.458;2023-02-19T15:44:51;9.30;99.90
7240;DHT22;3661;53.288;10.458;2023-02-19T15:47:27;9.20;99.90
7240;DHT22;3661;53.288;10.458;2023-02-19T15:50:06;9.20;99.90
7240;DHT22;3661;53.288;10.458;2023-02-19T15:52:44;9.10;99.90
7240;DHT22;3661;53.288;10.458;2023-02-19T15:55:28;9.00;99.90
7240;DHT22;3661;53.288;10.458;2023-02-19T15:58:11;8.90;99.90
7240;DHT22;3661;53.288;10.458;2023-02-19T16:00:46;8.80;99.90
7240;DHT22;3661;53.288;10.458;2023-02-19T16:03:21;8.70;99.90
7240;DHT22;3661;53.288;10.458;2023-02-19T16:05:59;8.60;99.90
7240;DHT22;3661;53.288;10.458;2023-02-19T16:08:32;8.50;99.90
7240;DHT22;3661;53.288;10.458;2023-02-19T16:11:05;8.40;99.90
7240;DHT22;3661;53.288;10.458;2023-02-19T16:13:39;8.40;99.90
7240;DHT22;3661;53.288;10.458;2023-02-19T16:16:17;8.30;99.90
7240;DHT22;3661;53.288;10.458;2023-02-19T16:18:52;8.10;99.90
7240;DHT22;3661;53.288;10.458;2023-02-19T16:21:26;8.00;99.90
7240;DHT22;3661;53.288;10.458;2023-02-19T16:24:02;8.00;99.90
7240;DHT22;3661;53.288;10.458;2023-02-19T16:26:40;7.90;99.90
7240;DHT22;3661;53.288;10.458;2023-02-19T16:29:28;7.80;99.90
7240;DHT22;3661;53.288;10.458;2023-02-19T16:32:03;7.70;99.90
7240;DHT22;3661;53.288;10.458;2023-02-19T16:34:40;7.60;99.90
7240;DHT22;3661;53.288;10.458;2023-02-19T16:37:33;7.50;99.90
7240;DHT22;3661;53.288;10.458;2023-02-19T16:40:52;7.40;99.90
7240;DHT22;3661;53.288;10.458;2023-02-19T16:43:39;7.30;99.90
7240;DHT22;3661;53.288;10.458;2023-02-19T16:46:13;7.20;99.90
7240;DHT22;3661;53.288;10.458;2023-02-19T16:48:45;7.10;99.90
7240;DHT22;3661;53.288;10.458;2023-02-19T16:51:23;7.10;99.90
7240;DHT22;3661;53.288;10.458;2023-02-19T16:53:55;7.00;99.90
7240;DHT22;3661;53.288;10.458;2023-02-19T16:56:27;6.90;99.90
7240;DHT22;3661;53.288;10.458;2023-02-19T16:59:00;6.80;99.90
7240;DHT22;3661;53.288;10.458;2023-02-19T17:01:34;6.80;99.90
7240;DHT22;3661;53.288;10.458;2023-02-19T17:04:08;6.70;99.90
7240;DHT22;3661;53.288;10.458;2023-02-19T17:06:41;6.60;99.90
7240;DHT22;3661;53.288;10.458;2023-02-19T17:09:14;6.60;99.90
7240;DHT22;3661;53.288;10.458;2023-02-19T17:11:46;6.60;99.90
7240;DHT22;3661;53.288;10.458;2023-02-19T17:14:18;6.50;99.90
7240;DHT22;3661;53.288;10.458;2023-02-19T17:16:51;6.40;99.90
7240;DHT22;3661;53.288;10.458;2023-02-19T17:19:24;6.40;99.90
7240;DHT22;3661;53.288;10.458;2023-02-19T17:21:57;6.30;99.90
7240;DHT22;3661;53.288;10.458;2023-02-19T17:24:29;6.30;99.90
7240;DHT22;3661;53.288;10.458;2023-02-19T17:27:01;6.20;99.90
7240;DHT22;3661;53.288;10.458;2023-02-19T17:29:34;6.10;99.90
7240;DHT22;3661;53.288;10.458;2023-02-19T17:32:08;6.10;99.90
7240;DHT22;3661;53.288;10.458;2023-02-19T17:34:40;6.10;99.90
7240;DHT22;3661;53.288;10.458;2023-02-19T17:37:12;6.00;99.90